Aeroporto :
LOGIN :

Iscrizione | Disclaimer

   EN    FR    IT 

 










Sommario :    VFR   VFR Marginale   IFR   IFR Intensivo   IFR Molto Intensivo
Visibilità : 
Base nubi : 
>= 8 km
>= 3000ft
5 / 8 km
1000 / 3000 ft
1500m / 5 km
500 / 1000 ft
800 / 1500m
200 / 500 ft
< 800m
< 200 ft
Simboli :   Temporali  Nebbia  Neve Forte  Precipitazioni Forti  Vento > 20 kt
SIGMETs :   Varie  Temporali  Ghiacco  Turbolenza  Onda orograficha  Ceneri Vulcaniche







- Altitudine del aeroporto : 238 ft
- Codice IATA : FAB
- Carte del aeroporto


EGLF - Farnborough

ULTIMO METAR :
  • 202050Z AUTO 22006KT 9999 OVC014/// 10/07 Q1033

METARs OBSOLETI :
  • 202020Z AUTO 21006KT 9999 OVC016/// 10/08 Q1033
  • 201950Z AUTO 20008KT 9999 OVC018/// 10/08 Q1033
  • 201920Z AUTO 20008KT 9999 OVC018/// 11/08 Q1033
  • 201850Z AUTO 21008KT 9999 OVC019/// 11/08 Q1033
  • 201820Z AUTO 21006KT 9999 OVC019/// 11/08 Q1033

TAF TAF EGLF
Valido dal 20 a 21 ore il 20 a 23 ore UTC


202003Z 2021/2023 22005KT 9999 BKN018
PROB30
TEMPO 2021/2023 8000 BKN004
ATIS : +44 09063 800 400 (*282)
Nessun NOTAM noto per questo aeroporto.



MetMap, La meteo Aeronautica in un colpo d'occhio ! - Copyright ORBIFLY Dicembre 2007 - Disclaimer

ORBIFLY MET'MAP TEAM :

Programmazione e sviluppo : Alexandra Zaïnal
Concezione e sviluppo : Baudouin d'Aumeries
Co-Programmazione e sviluppo : Marc-Olivier Méhu
Supporto tecnico e logistico : Manuel Goepfert
Aiuto per la traduzione : Arnaldo La Scala

Contatto : metmap@orbifly.com




FONTI E CREDITI :

   NOAA